Shoukeimaruno.3 — JI3587 — position and weather

sailwx.info

Track history (hours):
 
Tides and Currents Weather Stations Pressure Air Temp Water Temp Dewpoint Dewpoint Depression Visibility Wind Speed Wind Dir Waves Ship Positions

Shoukeimaruno.3

Last reported at 2015-Apr-19 18:20 UTC. Time now 2015-Apr-21 05:07 UTC.
Position N 35°54' E 140°58'.

Length 77 m; draft 3.8 m.

Type: Cargo ship. MMSI: 431300325.

Date/timePositionNaut miles runAvg speedWind from/ knotsBaromVisibWave heightAir tempDewpointWater temp
2015-Apr-19 18:20N 35°54' E 140°58'1211.5
2015-Apr-19 17:17N 35°42' E 140°55'1111.5
2015-Apr-19 16:17N 35°33' E 140°47'911.8
2015-Apr-19 15:33N 35°26' E 140°41'1411.8
2015-Apr-19 14:24N 35°15' E 140°31'2312.5
2015-Apr-19 12:33N 34°59' E 140°10'1211.8
2015-Apr-19 11:33N 34°53' E 139°57'1110.3
2015-Apr-19 10:32N 34°57' E 139°45'1111.1
2015-Apr-19 09:33N 35°07' E 139°45'1110.8
2015-Apr-19 08:34N 35°18' E 139°44'8 7.7
2015-Apr-19 07:34N 35°24' E 139°37'0 0.0
2015-Apr-19 06:34N 35°24' E 139°37'0 0.0
2015-Apr-19 05:33N 35°24' E 139°37'0 0.0
2015-Apr-19 04:33N 35°24' E 139°37'0 0.0
2015-Apr-19 03:33N 35°24' E 139°37'0 0.0
2015-Apr-19 02:33N 35°24' E 139°37'0 0.0
2015-Apr-19 01:34N 35°24' E 139°37'0 0.0
2015-Apr-19 00:33N 35°24' E 139°37'0 0.0
2015-Apr-18 23:34N 35°24' E 139°37'2 1.9
2015-Apr-18 22:34N 35°23' E 139°40'0 0.0
2015-Apr-18 21:33N 35°23' E 139°40'0 0.0
2015-Apr-18 20:33N 35°23' E 139°40'0 0.0
2015-Apr-18 19:34N 35°23' E 139°40'0 0.0
2015-Apr-18 18:33N 35°23' E 139°40'0 0.0
2015-Apr-18 17:33N 35°23' E 139°40'8 8.5
2015-Apr-18 16:33N 35°17' E 139°46'1212.0
2015-Apr-18 15:33N 35°04' E 139°45'16 7.0
2015-Apr-18 13:20N 34°56' E 140°01'1010.7
2015-Apr-18 12:22N 35°02' E 140°11'21 9.2
2015-Apr-18 10:08N 35°16' E 140°29'1710.5
2015-Apr-18 08:30N 35°31' E 140°40'24 6.1
2015-Apr-18 04:31N 35°55' E 140°40'0 0.0
2015-Apr-18 03:29N 35°55' E 140°40'0 0.0
2015-Apr-18 02:18N 35°55' E 140°40'0 0.0
2015-Apr-18 01:09N 35°55' E 140°40'20 7.7
2015-Apr-17 22:33N 35°37' E 140°51'1110.5
2015-Apr-17 21:34N 35°30' E 140°41'1110.1
2015-Apr-17 20:25N 35°21' E 140°33'8 9.3
2015-Apr-17 19:33N 35°14' E 140°28'18 8.4
2015-Apr-17 17:25N 35°01' E 140°13'8 8.3
2015-Apr-17 16:29N 34°57' E 140°05'8 8.5
2015-Apr-17 15:33N 34°53' E 139°57'11 7.9
2015-Apr-17 14:13N 34°57' E 139°45'710.2
2015-Apr-17 13:33N 35°04' E 139°44'1111.2
2015-Apr-17 12:33N 35°15' E 139°46'1110.7
2015-Apr-17 11:34N 35°24' E 139°40'0 0.0
2015-Apr-17 10:33N 35°24' E 139°40'0 0.0
2015-Apr-17 09:34N 35°24' E 139°40'0 0.0
2015-Apr-17 08:33N 35°24' E 139°40'1 1.0
2015-Apr-17 07:34N 35°23' E 139°41'5 5.1
2015-Apr-17 06:31N 35°29' E 139°39'0 0.0
2015-Apr-17 05:31N 35°29' E 139°39'0 0.0
2015-Apr-17 04:31N 35°29' E 139°39'0 0.0
2015-Apr-17 03:31N 35°29' E 139°39'0 0.0
2015-Apr-17 02:31N 35°29' E 139°39'0 0.0
2015-Apr-17 01:31N 35°29' E 139°39'0 0.0
2015-Apr-17 00:33N 35°29' E 139°39'0 0.0
2015-Apr-16 23:33N 35°29' E 139°39'4 3.6
2015-Apr-16 22:33N 35°27' E 139°43'0 0.0
2015-Apr-16 21:33N 35°27' E 139°43'0 0.0
2015-Apr-16 20:33N 35°27' E 139°43'0 0.0
2015-Apr-16 19:33N 35°27' E 139°43'5 5.3
2015-Apr-16 18:33N 35°22' E 139°43'1211.8
2015-Apr-16 17:33N 35°10' E 139°46'1211.7
2015-Apr-16 16:33N 35°01' E 139°37'5512.2
2015-Apr-16 12:04N 34°35' E 138°39'54 1.7
2015-Apr-15 04:29N 35°04' E 139°34'1010.3
2015-Apr-15 03:33N 35°09' E 139°44'10 9.8
2015-Apr-15 02:33N 35°19' E 139°43'6 6.1
2015-Apr-15 01:34N 35°24' E 139°40'0 0.0
2015-Apr-15 00:34N 35°24' E 139°40'0 0.0
2015-Apr-14 23:33N 35°24' E 139°40'1 0.5
2015-Apr-14 22:33N 35°24' E 139°40'0 0.2
2015-Apr-14 21:33N 35°24' E 139°40'0 0.0
2015-Apr-14 20:34N 35°24' E 139°40'0 0.1
2015-Apr-14 19:33N 35°24' E 139°40'0 0.0
2015-Apr-14 18:33N 35°24' E 139°40'0 0.1
2015-Apr-14 17:33N 35°24' E 139°40'0 0.0
2015-Apr-14 16:34N 35°24' E 139°40'0 0.0
2015-Apr-14 15:33N 35°24' E 139°40'0 0.1
2015-Apr-14 14:33N 35°24' E 139°40'0 0.1
2015-Apr-14 13:34N 35°23' E 139°40'0 0.0
2015-Apr-14 12:33N 35°23' E 139°40'0 0.0
2015-Apr-14 11:34N 35°23' E 139°40'0 0.0
2015-Apr-14 10:34N 35°23' E 139°40'0 0.0
2015-Apr-14 09:33N 35°23' E 139°40'0 0.0
2015-Apr-14 08:34N 35°23' E 139°40'0 0.0
2015-Apr-14 07:33N 35°23' E 139°40'0 0.0
2015-Apr-14 06:33N 35°23' E 139°40'1 0.8
2015-Apr-14 05:33N 35°24' E 139°40'0 0.0
2015-Apr-14 04:33N 35°24' E 139°40'0 0.0
2015-Apr-14 03:33N 35°24' E 139°40'0 0.0
2015-Apr-14 02:34N 35°24' E 139°40'0 0.0
2015-Apr-14 01:33N 35°24' E 139°40'0 0.0
2015-Apr-14 00:33N 35°24' E 139°40'0 0.0
2015-Apr-13 23:33N 35°24' E 139°40'1 0.9
2015-Apr-13 22:33N 35°23' E 139°40'0 0.1
2015-Apr-13 21:33N 35°23' E 139°40'8 8.4
2015-Apr-13 20:34N 35°16' E 139°46'1111.3
2015-Apr-13 19:33N 35°05' E 139°45'1110.9
2015-Apr-13 18:33N 34°54' E 139°47'1211.7
2015-Apr-13 17:31N 34°55' E 140°01'1312.9
2015-Apr-13 16:29N 35°02' E 140°15'1312.3
2015-Apr-13 15:26N 35°10' E 140°28'1412.0
2015-Apr-13 14:16N 35°22' E 140°37'911.8
2015-Apr-13 13:32N 35°29' E 140°43'3810.9
2015-Apr-13 10:03N 36°06' E 140°53'  
Track history (hours):
 
Tides and Currents Weather Stations Pressure Air Temp Water Temp Dewpoint Dewpoint Depression Visibility Wind Speed Wind Dir Waves Ship Positions

Shoukeimaruno.3

Last reported at 2015-Apr-19 18:20 UTC. Time now 2015-Apr-21 05:07 UTC.
Position N 35°54' E 140°58'.

Length 77 m; draft 3.8 m.

Type: Cargo ship. MMSI: 431300325.

Date/timePositionNaut miles runAvg speedWind from/ knotsBaromVisibWave heightAir tempDewpointWater temp
2015-Apr-19 18:20N 35°54' E 140°58'1211.5
2015-Apr-19 17:17N 35°42' E 140°55'1111.5
2015-Apr-19 16:17N 35°33' E 140°47'911.8
2015-Apr-19 15:33N 35°26' E 140°41'1411.8
2015-Apr-19 14:24N 35°15' E 140°31'2312.5
2015-Apr-19 12:33N 34°59' E 140°10'1211.8
2015-Apr-19 11:33N 34°53' E 139°57'1110.3
2015-Apr-19 10:32N 34°57' E 139°45'1111.1
2015-Apr-19 09:33N 35°07' E 139°45'1110.8
2015-Apr-19 08:34N 35°18' E 139°44'8 7.7
2015-Apr-19 07:34N 35°24' E 139°37'0 0.0
2015-Apr-19 06:34N 35°24' E 139°37'0 0.0
2015-Apr-19 05:33N 35°24' E 139°37'0 0.0
2015-Apr-19 04:33N 35°24' E 139°37'0 0.0
2015-Apr-19 03:33N 35°24' E 139°37'0 0.0
2015-Apr-19 02:33N 35°24' E 139°37'0 0.0
2015-Apr-19 01:34N 35°24' E 139°37'0 0.0
2015-Apr-19 00:33N 35°24' E 139°37'0 0.0
2015-Apr-18 23:34N 35°24' E 139°37'2 1.9
2015-Apr-18 22:34N 35°23' E 139°40'0 0.0
2015-Apr-18 21:33N 35°23' E 139°40'0 0.0
2015-Apr-18 20:33N 35°23' E 139°40'0 0.0
2015-Apr-18 19:34N 35°23' E 139°40'0 0.0
2015-Apr-18 18:33N 35°23' E 139°40'0 0.0
2015-Apr-18 17:33N 35°23' E 139°40'8 8.5
2015-Apr-18 16:33N 35°17' E 139°46'1212.0
2015-Apr-18 15:33N 35°04' E 139°45'16 7.0
2015-Apr-18 13:20N 34°56' E 140°01'1010.7
2015-Apr-18 12:22N 35°02' E 140°11'21 9.2
2015-Apr-18 10:08N 35°16' E 140°29'1710.5
2015-Apr-18 08:30N 35°31' E 140°40'24 6.1
2015-Apr-18 04:31N 35°55' E 140°40'0 0.0
2015-Apr-18 03:29N 35°55' E 140°40'0 0.0
2015-Apr-18 02:18N 35°55' E 140°40'0 0.0
2015-Apr-18 01:09N 35°55' E 140°40'20 7.7
2015-Apr-17 22:33N 35°37' E 140°51'1110.5
2015-Apr-17 21:34N 35°30' E 140°41'1110.1
2015-Apr-17 20:25N 35°21' E 140°33'8 9.3
2015-Apr-17 19:33N 35°14' E 140°28'18 8.4
2015-Apr-17 17:25N 35°01' E 140°13'8 8.3
2015-Apr-17 16:29N 34°57' E 140°05'8 8.5
2015-Apr-17 15:33N 34°53' E 139°57'11 7.9
2015-Apr-17 14:13N 34°57' E 139°45'710.2
2015-Apr-17 13:33N 35°04' E 139°44'1111.2
2015-Apr-17 12:33N 35°15' E 139°46'1110.7
2015-Apr-17 11:34N 35°24' E 139°40'0 0.0
2015-Apr-17 10:33N 35°24' E 139°40'0 0.0
2015-Apr-17 09:34N 35°24' E 139°40'0 0.0
2015-Apr-17 08:33N 35°24' E 139°40'1 1.0
2015-Apr-17 07:34N 35°23' E 139°41'5 5.1
2015-Apr-17 06:31N 35°29' E 139°39'0 0.0
2015-Apr-17 05:31N 35°29' E 139°39'0 0.0
2015-Apr-17 04:31N 35°29' E 139°39'0 0.0
2015-Apr-17 03:31N 35°29' E 139°39'0 0.0
2015-Apr-17 02:31N 35°29' E 139°39'0 0.0
2015-Apr-17 01:31N 35°29' E 139°39'0 0.0
2015-Apr-17 00:33N 35°29' E 139°39'0 0.0
2015-Apr-16 23:33N 35°29' E 139°39'4 3.6
2015-Apr-16 22:33N 35°27' E 139°43'0 0.0
2015-Apr-16 21:33N 35°27' E 139°43'0 0.0
2015-Apr-16 20:33N 35°27' E 139°43'0 0.0
2015-Apr-16 19:33N 35°27' E 139°43'5 5.3
2015-Apr-16 18:33N 35°22' E 139°43'1211.8
2015-Apr-16 17:33N 35°10' E 139°46'1211.7
2015-Apr-16 16:33N 35°01' E 139°37'5512.2
2015-Apr-16 12:04N 34°35' E 138°39'54 1.7
2015-Apr-15 04:29N 35°04' E 139°34'1010.3
2015-Apr-15 03:33N 35°09' E 139°44'10 9.8
2015-Apr-15 02:33N 35°19' E 139°43'6 6.1
2015-Apr-15 01:34N 35°24' E 139°40'0 0.0
2015-Apr-15 00:34N 35°24' E 139°40'0 0.0
2015-Apr-14 23:33N 35°24' E 139°40'1 0.5
2015-Apr-14 22:33N 35°24' E 139°40'0 0.2
2015-Apr-14 21:33N 35°24' E 139°40'0 0.0
2015-Apr-14 20:34N 35°24' E 139°40'0 0.1
2015-Apr-14 19:33N 35°24' E 139°40'0 0.0
2015-Apr-14 18:33N 35°24' E 139°40'0 0.1
2015-Apr-14 17:33N 35°24' E 139°40'0 0.0
2015-Apr-14 16:34N 35°24' E 139°40'0 0.0
2015-Apr-14 15:33N 35°24' E 139°40'0 0.1
2015-Apr-14 14:33N 35°24' E 139°40'0 0.1
2015-Apr-14 13:34N 35°23' E 139°40'0 0.0
2015-Apr-14 12:33N 35°23' E 139°40'0 0.0
2015-Apr-14 11:34N 35°23' E 139°40'0 0.0
2015-Apr-14 10:34N 35°23' E 139°40'0 0.0
2015-Apr-14 09:33N 35°23' E 139°40'0 0.0
2015-Apr-14 08:34N 35°23' E 139°40'0 0.0
2015-Apr-14 07:33N 35°23' E 139°40'0 0.0
2015-Apr-14 06:33N 35°23' E 139°40'1 0.8
2015-Apr-14 05:33N 35°24' E 139°40'0 0.0
2015-Apr-14 04:33N 35°24' E 139°40'0 0.0
2015-Apr-14 03:33N 35°24' E 139°40'0 0.0
2015-Apr-14 02:34N 35°24' E 139°40'0 0.0
2015-Apr-14 01:33N 35°24' E 139°40'0 0.0
2015-Apr-14 00:33N 35°24' E 139°40'0 0.0
2015-Apr-13 23:33N 35°24' E 139°40'1 0.9
2015-Apr-13 22:33N 35°23' E 139°40'0 0.1
2015-Apr-13 21:33N 35°23' E 139°40'8 8.4
2015-Apr-13 20:34N 35°16' E 139°46'1111.3
2015-Apr-13 19:33N 35°05' E 139°45'1110.9
2015-Apr-13 18:33N 34°54' E 139°47'1211.7
2015-Apr-13 17:31N 34°55' E 140°01'1312.9
2015-Apr-13 16:29N 35°02' E 140°15'1312.3
2015-Apr-13 15:26N 35°10' E 140°28'1412.0
2015-Apr-13 14:16N 35°22' E 140°37'911.8
2015-Apr-13 13:32N 35°29' E 140°43'3810.9
2015-Apr-13 10:03N 36°06' E 140°53'  

Dump ship's entire track history